Time;durP1;ratioP1;P1;durP2;ratioP2;P2;SDS_P1;SDS_P2;PMS_P1;PMS_P2;Temp;Humidity;BMP_temperature;BMP_pressure;BME280_temperature;BME280_humidity;BME280_pressure;Samples;Min_cycle;Max_cycle;Signal;HPM_P1;HPM_P2
2022/08/13 00:01:40;;;;;;;1.33;1.23;;;16.70;99.90;;;;;;5003923;28;20057;-66
2022/08/13 00:04:15;;;;;;;1.52;1.38;;;16.80;99.90;;;;;;4994443;28;20413;-69
2022/08/13 00:09:22;;;;;;;4.57;2.42;;;16.80;99.90;;;;;;5001978;28;20054;-70
2022/08/13 00:15:07;;;;;;;1.75;1.65;;;16.80;99.90;;;;;;4998977;28;20116;-70
2022/08/13 00:17:43;;;;;;;1.83;1.63;;;16.80;99.90;;;;;;4996944;28;20141;-69
2022/08/13 00:20:40;;;;;;;2.47;1.40;;;16.80;99.90;;;;;;4998524;28;20148;-67
2022/08/13 00:23:10;;;;;;;1.88;1.77;;;16.80;99.90;;;;;;4997147;28;20042;-70
2022/08/13 00:25:50;;;;;;;1.92;1.77;;;16.80;99.90;;;;;;4999321;28;20078;-68
2022/08/13 00:28:22;;;;;;;2.63;2.08;;;16.80;99.90;;;;;;4999415;28;20053;-70
2022/08/13 00:30:51;;;;;;;3.40;3.13;;;16.70;99.90;;;;;;4999669;28;20050;-68
2022/08/13 00:33:21;;;;;;;2.92;1.70;;;16.70;99.90;;;;;;4995364;28;20535;-70
2022/08/13 00:36:08;;;;;;;2.45;1.48;;;16.60;99.90;;;;;;4998288;28;20046;-67
2022/08/13 00:38:36;;;;;;;3.67;2.25;;;16.60;99.90;;;;;;4997219;28;20050;-70
2022/08/13 00:41:04;;;;;;;2.90;1.92;;;16.50;99.90;;;;;;4998680;28;20077;-68
2022/08/13 00:43:33;;;;;;;2.40;1.88;;;16.40;99.90;;;;;;4996236;28;20503;-69
2022/08/13 00:46:03;;;;;;;1.70;1.60;;;16.40;99.90;;;;;;5000584;28;20062;-71
2022/08/13 00:48:46;;;;;;;2.67;2.05;;;16.40;99.90;;;;;;4989323;28;20161;-70
2022/08/13 00:51:25;;;;;;;2.13;2.00;;;16.40;99.90;;;;;;4979338;28;20149;-67
2022/08/13 00:54:16;;;;;;;2.28;1.92;;;16.40;99.90;;;;;;4998478;28;20117;-71
2022/08/13 00:56:44;;;;;;;2.40;2.20;;;16.40;99.90;;;;;;4998343;28;20541;-68
2022/08/13 00:59:13;;;;;;;2.00;1.85;;;16.40;99.90;;;;;;4996598;28;20538;-69
2022/08/13 01:01:45;;;;;;;1.77;1.65;;;16.50;99.90;;;;;;4997952;28;20053;-72
2022/08/13 01:04:21;;;;;;;2.47;1.75;;;16.50;99.90;;;;;;4998640;28;20457;-73
2022/08/13 01:06:55;;;;;;;3.70;2.60;;;16.50;99.90;;;;;;4997866;28;20151;-67
2022/08/13 01:09:29;;;;;;;1.90;1.70;;;16.50;99.90;;;;;;4996889;28;20060;-67
2022/08/13 01:12:19;;;;;;;1.60;1.50;;;16.50;99.90;;;;;;4998436;28;20639;-67
2022/08/13 01:14:50;;;;;;;2.28;1.67;;;16.50;99.90;;;;;;4998230;28;20085;-68
2022/08/13 01:17:22;;;;;;;1.90;1.70;;;16.50;99.90;;;;;;4995341;28;20144;-72
2022/08/13 01:20:09;;;;;;;1.92;1.83;;;16.40;99.90;;;;;;4997081;28;20057;-70
2022/08/13 01:22:39;;;;;;;1.95;1.70;;;16.40;99.90;;;;;;4997805;28;20121;-70
2022/08/13 01:25:11;;;;;;;2.72;1.80;;;16.40;99.90;;;;;;4995939;28;20057;-72
2022/08/13 01:27:41;;;;;;;2.17;1.98;;;16.40;99.90;;;;;;4998177;28;20559;-69
2022/08/13 01:30:14;;;;;;;2.13;1.90;;;16.40;99.90;;;;;;4989626;28;20047;-70
2022/08/13 01:32:43;;;;;;;2.33;2.13;;;16.40;99.90;;;;;;4975998;28;20053;-73
2022/08/13 01:35:23;;;;;;;2.25;2.05;;;16.40;99.90;;;;;;4978796;28;20136;-72
2022/08/13 01:37:57;;;;;;;2.47;1.85;;;16.40;99.90;;;;;;4997910;28;20052;-67
2022/08/13 01:40:33;;;;;;;3.55;2.85;;;16.40;99.90;;;;;;4985073;28;20060;-70
2022/08/13 01:43:02;;;;;;;2.03;1.85;;;16.40;99.90;;;;;;4978782;28;20523;-70
2022/08/13 01:45:51;;;;;;;4.70;2.42;;;16.40;99.90;;;;;;4985480;28;20575;-66
2022/08/13 01:51:08;;;;;;;2.75;2.15;;;16.40;99.90;;;;;;4997251;28;20143;-72
2022/08/13 01:53:46;;;;;;;2.60;2.40;;;16.40;99.90;;;;;;4975130;28;20324;-73
2022/08/13 01:56:16;;;;;;;3.08;2.53;;;16.40;99.90;;;;;;4991956;28;20049;-70
2022/08/13 01:58:47;;;;;;;2.70;2.50;;;16.40;99.90;;;;;;4999126;28;20050;-73
2022/08/13 02:01:34;;;;;;;3.77;2.67;;;16.40;99.90;;;;;;4981486;28;20508;-71
2022/08/13 02:04:16;;;;;;;2.75;2.55;;;16.40;99.90;;;;;;5001552;28;20447;-73
2022/08/13 02:06:52;;;;;;;2.60;2.40;;;16.40;99.90;;;;;;4998147;28;20046;-72
2022/08/13 02:09:23;;;;;;;4.32;3.10;;;16.40;99.90;;;;;;4995569;28;20053;-72
2022/08/13 02:12:13;;;;;;;;;;;16.40;99.90;;;;;;4991641;28;20062;-71
2022/08/13 02:15:03;;;;;;;6.28;2.60;;;16.40;99.90;;;;;;4996894;28;20055;-74
2022/08/13 02:17:35;;;;;;;2.90;2.63;;;16.40;99.90;;;;;;4996659;28;20109;-70
2022/08/13 02:20:22;;;;;;;6.28;2.88;;;16.40;99.90;;;;;;4998053;28;20045;-71
2022/08/13 02:22:49;;;;;;;3.80;3.45;;;16.40;99.90;;;;;;4996900;28;21539;-70
2022/08/13 02:25:20;;;;;;;2.63;2.25;;;16.40;99.90;;;;;;4996321;28;20160;-72
2022/08/13 02:27:48;;;;;;;4.95;4.10;;;16.30;99.90;;;;;;4996849;28;20116;-74
2022/08/13 02:30:26;;;;;;;2.38;2.17;;;16.30;99.90;;;;;;4997724;28;20192;-73
2022/08/13 02:32:54;;;;;;;4.50;2.30;;;16.30;99.90;;;;;;4997512;28;20089;-66
2022/08/13 02:35:23;;;;;;;2.53;2.23;;;16.30;99.90;;;;;;4994990;28;20057;-70
2022/08/13 02:38:05;;;;;;;2.50;1.92;;;16.30;99.90;;;;;;4996674;28;20050;-66
2022/08/13 02:41:44;;;;;;;2.30;2.10;;;16.20;99.90;;;;;;4996400;28;20053;-69
2022/08/13 02:43:46;;;;;;;2.63;2.42;;;16.30;99.90;;;;;;4979782;28;20047;-71
2022/08/13 02:46:26;;;;;;;6.15;2.65;;;16.30;99.90;;;;;;4999659;28;20144;-70
2022/08/13 02:48:58;;;;;;;2.67;2.42;;;16.30;99.90;;;;;;4996554;28;20119;-67
2022/08/13 02:51:27;;;;;;;2.67;2.47;;;16.30;99.90;;;;;;4993871;28;20997;-72
2022/08/13 02:54:16;;;;;;;2.53;2.33;;;16.40;99.90;;;;;;4996926;28;20060;-68
2022/08/13 02:56:45;;;;;;;2.80;2.60;;;16.40;99.90;;;;;;4996679;28;20568;-73
2022/08/13 02:59:13;;;;;;;2.30;2.10;;;16.40;99.90;;;;;;4994189;28;20061;-72
2022/08/13 03:02:00;;;;;;;4.22;2.55;;;16.40;99.90;;;;;;4976023;28;20061;-71
2022/08/13 03:04:31;;;;;;;2.47;2.28;;;16.30;99.90;;;;;;4988301;28;20376;-69
2022/08/13 03:07:00;;;;;;;2.70;2.50;;;16.30;99.90;;;;;;4997733;28;20066;-66
2022/08/13 03:09:28;;;;;;;2.38;2.17;;;16.30;99.90;;;;;;4996052;28;20054;-70
2022/08/13 03:11:59;;;;;;;3.67;3.30;;;16.20;99.90;;;;;;4997875;28;20403;-71
2022/08/13 03:14:32;;;;;;;4.10;1.98;;;16.20;99.90;;;;;;4995357;28;20499;-70
2022/08/13 03:16:59;;;;;;;3.28;2.28;;;16.20;99.90;;;;;;4997066;28;20069;-67
2022/08/13 03:19:28;;;;;;;2.38;2.17;;;16.20;99.90;;;;;;4994198;28;20042;-72
2022/08/13 03:21:55;;;;;;;3.15;2.50;;;16.20;99.90;;;;;;4995967;28;20069;-71
2022/08/13 03:24:26;;;;;;;2.15;2.00;;;16.20;99.90;;;;;;4995140;28;20054;-69
2022/08/13 03:27:01;;;;;;;4.65;2.53;;;16.20;99.90;;;;;;4996460;28;20071;-69
2022/08/13 03:29:29;;;;;;;3.75;2.20;;;16.20;99.90;;;;;;4994565;28;20054;-66
2022/08/13 03:32:19;;;;;;;2.35;2.15;;;16.20;99.90;;;;;;4997656;28;20050;-71
2022/08/13 03:34:59;;;;;;;2.40;2.20;;;16.20;99.90;;;;;;4996552;28;20625;-69
2022/08/13 03:37:37;;;;;;;2.67;2.47;;;16.20;99.90;;;;;;4994055;28;20117;-67
2022/08/13 03:40:05;;;;;;;2.22;2.03;;;16.20;99.90;;;;;;4989858;28;20496;-74
2022/08/13 03:42:33;;;;;;;3.30;1.88;;;16.10;99.90;;;;;;4991783;28;20049;-68
2022/08/13 03:45:22;;;;;;;2.83;2.00;;;16.10;99.90;;;;;;4990927;28;20054;-68
2022/08/13 03:47:51;;;;;;;2.55;2.33;;;16.10;99.90;;;;;;4994538;28;20376;-69
2022/08/13 03:50:20;;;;;;;3.28;1.77;;;16.10;99.90;;;;;;4992257;28;20101;-71
2022/08/13 03:52:49;;;;;;;3.28;2.30;;;16.10;99.90;;;;;;4978328;28;20058;-67
2022/08/13 03:55:18;;;;;;;2.00;1.90;;;16.10;99.90;;;;;;4977341;28;20079;-67
2022/08/13 03:57:45;;;;;;;2.00;1.90;;;16.00;99.90;;;;;;4979051;28;20141;-75
2022/08/13 04:00:32;;;;;;;2.20;1.88;;;16.00;99.90;;;;;;4972495;28;20049;-71
2022/08/13 04:03:11;;;;;;;1.90;1.80;;;16.00;99.90;;;;;;4987939;28;20512;-71
2022/08/13 04:05:38;;;;;;;2.13;1.95;;;16.10;99.90;;;;;;4976311;28;20045;-71
2022/08/13 04:08:20;;;;;;;2.00;1.70;;;16.00;99.90;;;;;;4991863;28;20058;-67
2022/08/13 04:10:48;;;;;;;1.60;1.50;;;16.10;99.90;;;;;;4992651;28;20050;-68
2022/08/13 04:13:20;;;;;;;2.47;2.28;;;16.10;99.90;;;;;;4989003;28;20042;-70
2022/08/13 04:16:10;;;;;;;2.17;2.08;;;16.00;99.90;;;;;;4991189;28;20148;-70
2022/08/13 04:18:39;;;;;;;3.80;1.92;;;16.10;99.90;;;;;;4991964;28;20058;-68
2022/08/13 04:21:09;;;;;;;1.88;1.75;;;16.10;99.90;;;;;;4990987;28;20062;-67
2022/08/13 04:23:41;;;;;;;1.70;1.60;;;16.10;99.90;;;;;;4992672;28;20053;-67
2022/08/13 04:26:13;;;;;;;2.63;1.77;;;16.10;99.90;;;;;;4991746;28;20069;-75
2022/08/13 04:28:59;;;;;;;2.75;2.10;;;16.20;99.90;;;;;;4991223;28;20065;-71
2022/08/13 04:31:26;;;;;;;2.22;2.03;;;16.20;99.90;;;;;;4989897;28;21163;-72
2022/08/13 04:34:14;;;;;;;2.20;2.00;;;16.20;99.90;;;;;;4989172;28;20053;-71
2022/08/13 04:37:02;;;;;;;2.70;1.70;;;16.20;99.90;;;;;;4991029;28;20171;-69
2022/08/13 04:39:30;;;;;;;1.73;1.63;;;16.30;99.90;;;;;;4990148;28;21591;-67
2022/08/13 04:42:18;;;;;;;2.00;1.83;;;16.30;99.90;;;;;;4990351;28;20057;-70
2022/08/13 04:45:00;;;;;;;1.75;1.65;;;16.30;99.90;;;;;;4992316;28;20053;-69
2022/08/13 04:47:30;;;;;;;1.98;1.73;;;16.30;99.90;;;;;;4990214;28;20053;-73
2022/08/13 04:49:56;;;;;;;1.88;1.77;;;16.30;99.90;;;;;;4991962;28;20089;-67
2022/08/13 04:52:24;;;;;;;3.08;2.33;;;16.40;99.90;;;;;;4992050;28;20088;-67
2022/08/13 04:54:56;;;;;;;1.65;1.55;;;16.50;99.90;;;;;;4991728;28;20052;-73
2022/08/13 04:57:23;;;;;;;1.70;1.60;;;16.50;99.90;;;;;;4989812;28;20064;-67
2022/08/13 05:00:11;;;;;;;1.92;1.83;;;16.50;99.90;;;;;;4991747;28;20053;-70
2022/08/13 05:02:41;;;;;;;2.10;1.80;;;16.50;99.90;;;;;;4992950;28;20042;-68
2022/08/13 05:05:11;;;;;;;2.22;2.03;;;16.60;99.90;;;;;;4973593;28;20130;-70
2022/08/13 05:07:47;;;;;;;1.98;1.75;;;16.60;99.90;;;;;;4973773;28;20054;-67
2022/08/13 05:10:22;;;;;;;2.22;1.90;;;16.70;99.90;;;;;;4972970;28;20512;-70
2022/08/13 05:13:03;;;;;;;2.30;2.10;;;16.70;99.90;;;;;;4971171;28;20054;-66
2022/08/13 05:15:39;;;;;;;1.90;1.80;;;16.80;99.90;;;;;;4989420;28;20132;-67
2022/08/13 05:18:18;;;;;;;3.58;1.90;;;16.80;99.90;;;;;;4991295;28;20049;-71
2022/08/13 05:20:59;;;;;;;2.38;2.17;;;16.90;99.90;;;;;;4992019;28;20453;-70
2022/08/13 05:23:34;;;;;;;1.88;1.77;;;17.00;99.90;;;;;;4968306;28;20058;-72
2022/08/13 05:26:25;;;;;;;1.65;1.55;;;17.20;99.90;;;;;;4972759;28;20586;-70
2022/08/13 05:29:06;;;;;;;2.70;2.40;;;17.20;99.90;;;;;;4971284;28;20054;-70
2022/08/13 05:31:34;;;;;;;2.63;2.42;;;17.30;99.90;;;;;;4968308;28;20585;-70
2022/08/13 05:34:22;;;;;;;2.30;2.10;;;17.40;99.90;;;;;;4971722;28;20050;-69
2022/08/13 05:36:52;;;;;;;2.00;1.80;;;17.40;99.90;;;;;;4970763;28;20050;-72
2022/08/13 05:39:40;;;;;;;2.08;1.88;;;17.50;99.90;;;;;;4989865;28;20046;-69
2022/08/13 05:42:18;;;;;;;3.08;1.73;;;17.60;99.90;;;;;;4990746;28;20471;-74
2022/08/13 05:44:54;;;;;;;2.03;1.83;;;17.60;99.90;;;;;;4991056;28;20147;-72
2022/08/13 05:47:21;;;;;;;2.60;2.20;;;17.70;99.90;;;;;;4990861;28;20078;-67
2022/08/13 05:49:54;;;;;;;2.10;1.90;;;17.80;99.90;;;;;;4996445;28;20057;-71
2022/08/13 05:52:32;;;;;;;2.75;2.50;;;17.80;99.90;;;;;;4996984;28;20299;-69
2022/08/13 05:55:11;;;;;;;3.08;2.78;;;17.80;99.90;;;;;;4995281;28;20053;-71
2022/08/13 05:57:58;;;;;;;2.97;2.28;;;17.90;99.90;;;;;;4994276;28;20042;-69
2022/08/13 06:03:31;;;;;;;2.85;2.45;;;17.90;99.90;;;;;;4993322;28;20105;-66
2022/08/13 06:06:22;;;;;;;3.65;2.63;;;17.90;99.90;;;;;;4994803;28;20447;-69
2022/08/13 06:08:56;;;;;;;7.05;2.33;;;18.00;99.90;;;;;;4995500;28;20053;-67
2022/08/13 06:11:27;;;;;;;3.55;2.50;;;18.10;99.90;;;;;;4993698;28;20488;-71
2022/08/13 06:14:20;;;;;;;2.45;2.25;;;18.10;99.90;;;;;;4994276;28;20068;-72
2022/08/13 06:16:51;;;;;;;3.20;2.15;;;18.20;99.90;;;;;;4996330;28;20095;-74
2022/08/13 06:19:26;;;;;;;2.22;1.75;;;18.30;99.90;;;;;;4994242;28;20054;-69
2022/08/13 06:22:04;;;;;;;2.03;1.83;;;18.40;99.90;;;;;;4993956;28;20046;-71
2022/08/13 06:24:37;;;;;;;2.20;2.00;;;18.40;99.90;;;;;;4996126;28;20050;-71
2022/08/13 06:27:21;;;;;;;2.13;1.88;;;18.60;99.90;;;;;;4991239;28;20751;-74
2022/08/13 06:30:10;;;;;;;2.25;2.05;;;18.60;99.90;;;;;;4992121;28;20121;-69
2022/08/13 06:32:41;;;;;;;1.67;1.58;;;18.80;99.90;;;;;;4996100;28;20042;-72
2022/08/13 06:35:30;;;;;;;3.08;2.17;;;18.90;99.90;;;;;;4991011;28;20046;-71
2022/08/13 06:38:14;;;;;;;2.80;1.50;;;19.00;99.90;;;;;;4994894;28;20073;-72
2022/08/13 06:40:48;;;;;;;1.50;1.40;;;19.00;99.90;;;;;;4994527;28;20133;-72
2022/08/13 06:43:19;;;;;;;1.67;1.58;;;19.10;99.90;;;;;;4994244;28;20559;-70
2022/08/13 06:45:47;;;;;;;1.58;1.35;;;19.20;99.90;;;;;;4996438;28;20154;-66
2022/08/13 06:48:16;;;;;;;2.58;1.83;;;19.20;99.90;;;;;;4995373;28;21006;-67
2022/08/13 06:51:06;;;;;;;2.38;1.38;;;19.30;99.90;;;;;;4994836;28;20066;-67
2022/08/13 06:53:35;;;;;;;3.55;1.80;;;19.30;99.90;;;;;;4993592;28;20042;-70
2022/08/13 06:56:26;;;;;;;1.63;1.52;;;19.50;99.90;;;;;;4995492;28;20121;-70
2022/08/13 06:59:03;;;;;;;4.72;2.05;;;19.60;99.90;;;;;;4993972;28;20053;-71
2022/08/13 07:01:45;;;;;;;1.60;1.50;;;19.70;99.90;;;;;;4992509;28;20037;-67
2022/08/13 07:04:33;;;;;;;1.52;1.38;;;19.80;99.90;;;;;;4995049;28;20172;-67
2022/08/13 07:07:04;;;;;;;1.30;1.13;;;19.90;99.90;;;;;;4995448;28;20062;-72
2022/08/13 07:09:32;;;;;;;0.93;0.90;;;20.00;99.90;;;;;;4993006;28;20078;-70
2022/08/13 07:12:12;;;;;;;2.25;1.10;;;20.10;99.90;;;;;;4993828;28;20176;-75
2022/08/13 07:14:44;;;;;;;0.88;0.82;;;20.10;99.90;;;;;;4995363;28;20531;-69
2022/08/13 07:17:28;;;;;;;1.20;1.10;;;20.20;99.90;;;;;;4992692;28;20093;-71
2022/08/13 07:19:59;;;;;;;1.92;1.05;;;20.30;99.90;;;;;;4993847;28;20145;-72
2022/08/13 07:22:33;;;;;;;1.92;1.05;;;20.40;99.90;;;;;;4994329;28;20034;-67
2022/08/13 07:25:26;;;;;;;1.60;1.23;;;20.50;99.90;;;;;;4992445;28;20495;-70
2022/08/13 07:28:19;;;;;;;1.27;0.75;;;20.50;99.90;;;;;;4994239;28;20795;-68
2022/08/13 07:31:07;;;;;;;0.93;0.85;;;20.70;99.90;;;;;;4995528;28;20061;-68
2022/08/13 07:33:42;;;;;;;1.60;0.90;;;20.80;99.90;;;;;;4992963;28;20048;-73
2022/08/13 07:36:29;;;;;;;1.20;0.75;;;20.90;99.90;;;;;;4991404;28;20051;-70
2022/08/13 07:38:58;;;;;;;0.80;0.80;;;21.10;99.90;;;;;;4994554;28;20038;-66
2022/08/13 07:41:42;;;;;;;2.22;0.88;;;21.20;99.90;;;;;;4973997;28;21033;-68
2022/08/13 07:44:28;;;;;;;1.20;0.82;;;21.20;99.90;;;;;;4973213;28;20500;-72
2022/08/13 07:47:02;;;;;;;0.82;0.63;;;21.20;99.90;;;;;;4978802;28;20058;-73
2022/08/13 07:49:37;;;;;;;4.40;0.90;;;21.30;99.90;;;;;;4971638;28;20460;-68
2022/08/13 07:52:15;;;;;;;0.80;0.60;;;21.40;99.90;;;;;;4973868;28;20053;-72
2022/08/13 07:54:44;;;;;;;0.43;0.43;;;21.50;99.60;;;;;;4972836;28;20050;-71
2022/08/13 07:57:19;;;;;;;2.35;1.20;;;21.60;98.70;;;;;;4972823;28;20053;-74
2022/08/13 08:00:08;;;;;;;0.68;0.68;;;21.70;97.80;;;;;;4972353;28;20141;-67
2022/08/13 08:03:02;;;;;;;1.30;0.75;;;21.90;97.60;;;;;;4973086;28;20137;-67
2022/08/13 08:05:33;;;;;;;1.23;0.65;;;22.00;97.30;;;;;;4970519;28;20523;-69
2022/08/13 08:08:08;;;;;;;0.60;0.55;;;22.00;97.60;;;;;;4971131;28;20130;-68
2022/08/13 08:10:40;;;;;;;0.60;0.60;;;22.10;97.30;;;;;;4973578;28;20057;-69
2022/08/13 08:13:09;;;;;;;0.65;0.43;;;22.20;96.90;;;;;;4971358;28;20471;-71
2022/08/13 08:15:44;;;;;;;0.50;0.50;;;22.30;96.80;;;;;;4974830;28;20104;-68
2022/08/13 08:18:28;;;;;;;0.77;0.65;;;22.40;95.60;;;;;;4974204;28;20120;-71
2022/08/13 08:21:20;;;;;;;0.50;0.47;;;22.60;94.60;;;;;;4970457;28;20073;-67
2022/08/13 08:24:08;;;;;;;1.35;0.88;;;22.70;94.70;;;;;;4972941;28;20050;-67
2022/08/13 08:26:49;;;;;;;0.57;0.45;;;22.80;94.20;;;;;;4972125;28;20046;-70
2022/08/13 08:29:16;;;;;;;0.57;0.50;;;22.90;93.20;;;;;;4970574;28;20046;-74
2022/08/13 08:31:48;;;;;;;1.65;0.40;;;23.10;91.90;;;;;;4971994;28;20061;-69
2022/08/13 08:34:29;;;;;;;0.70;0.70;;;23.20;92.60;;;;;;4973782;28;20058;-68
2022/08/13 08:36:57;;;;;;;1.00;0.70;;;23.40;93.50;;;;;;4972971;28;20133;-67
2022/08/13 08:42:36;;;;;;;0.80;0.70;;;23.50;92.40;;;;;;4971947;28;20035;-71
2022/08/13 08:45:13;;;;;;;0.60;0.57;;;23.60;90.50;;;;;;4970731;28;20054;-73
2022/08/13 08:47:42;;;;;;;1.85;0.60;;;23.70;91.10;;;;;;4969806;28;20103;-67
2022/08/13 08:50:26;;;;;;;1.00;1.00;;;23.80;91.80;;;;;;4972561;28;20150;-67
2022/08/13 08:56:08;;;;;;;3.08;1.70;;;23.80;97.10;;;;;;4984845;28;20065;-67
2022/08/13 08:58:38;;;;;;;1.60;1.50;;;23.60;99.90;;;;;;4972311;28;20057;-73
2022/08/13 09:01:13;;;;;;;1.30;1.10;;;23.30;99.90;;;;;;4976387;28;20145;-70
2022/08/13 09:03:42;;;;;;;1.42;0.77;;;23.20;99.90;;;;;;4973560;28;20446;-70
2022/08/13 09:06:28;;;;;;;1.95;1.45;;;23.10;99.90;;;;;;4973611;28;20066;-73
2022/08/13 09:09:17;;;;;;;0.85;0.63;;;23.10;99.90;;;;;;4970201;28;20045;-67
2022/08/13 09:11:51;;;;;;;0.80;0.65;;;23.10;99.90;;;;;;4974049;28;20084;-66
2022/08/13 09:14:27;;;;;;;0.98;0.98;;;23.10;99.90;;;;;;4973868;28;20050;-73
2022/08/13 09:17:00;;;;;;;1.38;0.82;;;23.20;99.90;;;;;;4973309;28;20065;-74
2022/08/13 09:19:27;;;;;;;3.63;1.25;;;23.20;99.90;;;;;;4968518;28;20478;-69
2022/08/13 09:22:22;;;;;;;1.48;0.93;;;23.40;99.10;;;;;;4974032;28;20380;-69
2022/08/13 09:24:57;;;;;;;0.60;0.43;;;23.50;99.00;;;;;;4991690;28;20420;-69
2022/08/13 09:27:28;;;;;;;2.40;1.10;;;23.70;97.10;;;;;;4998203;28;20317;-71
2022/08/13 09:30:16;;;;;;;1.65;0.90;;;23.80;96.10;;;;;;4998957;28;20100;-68
2022/08/13 09:32:56;;;;;;;1.77;0.90;;;24.10;95.00;;;;;;4997104;28;20112;-72
2022/08/13 09:35:25;;;;;;;1.20;0.68;;;24.40;93.00;;;;;;4996174;28;20398;-72
2022/08/13 09:38:06;;;;;;;2.60;0.80;;;24.60;93.90;;;;;;4998435;28;20046;-68
2022/08/13 09:41:08;;;;;;;1.30;1.00;;;24.60;96.40;;;;;;4998148;28;20137;-68
2022/08/13 09:43:45;;;;;;;2.33;0.93;;;24.60;97.80;;;;;;4977309;28;20151;-69
2022/08/13 09:46:23;;;;;;;1.00;0.95;;;24.50;98.80;;;;;;4978556;28;20130;-69
2022/08/13 09:48:57;;;;;;;0.95;0.93;;;24.50;99.50;;;;;;4977535;28;20051;-74
2022/08/13 09:51:34;;;;;;;1.38;1.25;;;24.40;99.90;;;;;;4975838;28;20062;-71
2022/08/13 09:54:22;;;;;;;1.10;1.00;;;24.20;99.90;;;;;;4978268;28;20046;-69
2022/08/13 09:56:58;;;;;;;0.95;0.95;;;24.30;99.90;;;;;;4993059;28;20050;-68
2022/08/13 09:59:28;;;;;;;1.25;1.13;;;24.30;99.90;;;;;;4995204;28;20184;-70
2022/08/13 10:02:12;;;;;;;2.13;1.20;;;24.20;99.90;;;;;;4998765;28;20049;-68
2022/08/13 10:04:43;;;;;;;3.30;1.15;;;24.10;99.90;;;;;;4995180;28;20060;-70
2022/08/13 10:07:14;;;;;;;1.13;0.90;;;23.80;99.90;;;;;;4997126;28;20046;-71
2022/08/13 10:09:48;;;;;;;2.03;1.90;;;23.80;99.90;;;;;;4998799;28;20048;-71
2022/08/13 10:12:35;;;;;;;1.05;0.95;;;23.70;99.90;;;;;;4996705;28;20045;-67
2022/08/13 10:15:04;;;;;;;1.40;1.17;;;23.70;99.90;;;;;;4998546;28;20773;-71
2022/08/13 10:17:55;;;;;;;2.10;1.02;;;23.70;99.90;;;;;;4976205;28;20049;-73
2022/08/13 10:20:30;;;;;;;3.22;0.90;;;23.70;99.90;;;;;;4978084;28;20051;-71
2022/08/13 10:22:58;;;;;;;;;;;23.60;99.90;;;;;;4979359;28;20057;-68
2022/08/13 10:25:26;;;;;;;1.27;1.02;;;23.60;99.90;;;;;;4978276;28;20015;-70
2022/08/13 10:27:56;;;;;;;4.15;1.00;;;23.60;99.90;;;;;;4979380;28;20050;-67
2022/08/13 10:30:26;;;;;;;0.82;0.80;;;23.60;99.90;;;;;;4978176;28;21274;-68
2022/08/13 10:33:15;;;;;;;2.65;0.82;;;23.60;99.90;;;;;;4974107;28;20050;-67
2022/08/13 10:35:52;;;;;;;3.40;1.27;;;23.60;99.90;;;;;;4973037;28;20046;-70
2022/08/13 10:38:26;;;;;;;2.05;0.95;;;23.70;99.90;;;;;;4973741;28;20047;-68
2022/08/13 10:40:57;;;;;;;1.77;0.80;;;23.60;99.90;;;;;;4975075;28;20049;-73
2022/08/13 10:43:26;;;;;;;4.63;0.88;;;23.70;99.90;;;;;;4972165;28;20041;-72
2022/08/13 10:46:12;;;;;;;5.85;1.48;;;23.60;99.90;;;;;;4974068;28;20053;-68
2022/08/13 10:48:55;;;;;;;1.05;0.95;;;23.60;99.90;;;;;;4974465;28;20058;-69
2022/08/13 10:51:29;;;;;;;2.30;0.85;;;23.50;99.90;;;;;;4971307;28;20061;-66
2022/08/13 10:54:02;;;;;;;1.00;0.90;;;23.50;99.90;;;;;;4973858;28;20046;-72
2022/08/13 10:56:31;;;;;;;2.38;1.13;;;23.50;99.90;;;;;;4975419;28;20073;-66
2022/08/13 10:59:03;;;;;;;4.65;1.27;;;23.50;99.90;;;;;;4974512;28;20102;-70
2022/08/13 11:01:30;;;;;;;2.65;1.00;;;23.60;99.90;;;;;;4973028;28;20473;-68
2022/08/13 11:04:03;;;;;;;2.03;0.90;;;23.60;99.90;;;;;;4974201;28;20070;-71
2022/08/13 11:06:36;;;;;;;2.22;0.88;;;23.70;99.90;;;;;;4973017;28;20499;-71
2022/08/13 11:09:07;;;;;;;2.03;1.05;;;23.70;99.90;;;;;;4973281;28;20058;-70
2022/08/13 11:11:55;;;;;;;2.60;1.05;;;23.60;99.90;;;;;;4992819;28;20227;-69
2022/08/13 11:14:27;;;;;;;3.28;0.98;;;23.70;99.90;;;;;;4992551;28;20065;-72
2022/08/13 11:17:04;;;;;;;1.88;0.88;;;23.80;99.90;;;;;;4993603;28;20453;-71
2022/08/13 11:19:51;;;;;;;2.05;1.02;;;23.70;99.90;;;;;;4972613;28;20117;-72
2022/08/13 11:22:21;;;;;;;2.45;1.15;;;23.70;99.90;;;;;;4973581;28;20140;-72
2022/08/13 11:24:59;;;;;;;0.93;0.88;;;23.70;99.90;;;;;;4974285;28;20062;-68
2022/08/13 11:27:44;;;;;;;1.10;0.80;;;23.60;99.90;;;;;;4973363;28;20031;-71
2022/08/13 11:30:18;;;;;;;4.30;1.50;;;23.70;99.90;;;;;;4975047;28;20142;-69
2022/08/13 11:33:04;;;;;;;2.70;1.17;;;23.60;99.90;;;;;;4974565;28;20488;-68
2022/08/13 11:35:39;;;;;;;2.95;0.90;;;23.50;99.90;;;;;;4973804;28;20358;-73
2022/08/13 11:38:11;;;;;;;1.50;0.90;;;23.60;99.90;;;;;;4970545;28;20053;-71
2022/08/13 11:41:01;;;;;;;2.83;0.98;;;23.60;99.90;;;;;;4974034;28;20050;-72
2022/08/13 11:43:30;;;;;;;4.07;1.35;;;23.40;99.90;;;;;;4969687;28;20066;-70
2022/08/13 11:46:18;;;;;;;2.20;1.15;;;23.40;99.90;;;;;;4975352;28;20990;-70
2022/08/13 11:48:49;;;;;;;2.05;1.02;;;23.40;99.90;;;;;;4974151;28;20054;-71
2022/08/13 11:51:34;;;;;;;0.52;0.52;;;23.50;99.90;;;;;;4975702;28;20053;-70
2022/08/13 11:54:23;;;;;;;2.08;1.13;;;23.50;99.90;;;;;;4977575;28;20059;-71
2022/08/13 11:57:04;;;;;;;4.45;1.40;;;23.50;99.90;;;;;;4978465;28;20153;-69
2022/08/13 11:59:39;;;;;;;1.15;0.90;;;23.50;99.90;;;;;;4996545;28;20053;-69
2022/08/13 12:02:16;;;;;;;1.25;0.88;;;23.50;99.90;;;;;;4998941;28;20053;-68
2022/08/13 12:04:44;;;;;;;1.48;0.90;;;23.50;99.90;;;;;;5002257;28;20072;-72
2022/08/13 12:07:22;;;;;;;0.90;0.88;;;23.70;99.90;;;;;;4996738;28;20072;-69
2022/08/13 12:09:49;;;;;;;2.60;0.85;;;23.50;99.90;;;;;;4998977;28;20197;-68
2022/08/13 12:12:23;;;;;;;4.22;0.80;;;23.60;99.90;;;;;;4998615;28;20465;-69
2022/08/13 12:14:57;;;;;;;2.70;1.05;;;23.60;99.90;;;;;;4998449;28;20229;-69
2022/08/13 12:17:24;;;;;;;2.97;1.65;;;23.60;99.90;;;;;;4997047;28;20149;-67
2022/08/13 12:20:14;;;;;;;1.10;0.80;;;23.50;99.90;;;;;;4998148;28;20044;-74
2022/08/13 12:22:58;;;;;;;2.13;1.33;;;23.50;99.90;;;;;;4997854;28;20054;-71
2022/08/13 12:25:29;;;;;;;5.57;1.40;;;23.60;99.90;;;;;;4996770;28;20041;-71
2022/08/13 12:28:18;;;;;;;5.47;0.80;;;23.70;99.90;;;;;;4997426;28;20057;-67
2022/08/13 12:30:56;;;;;;;1.73;1.13;;;23.80;99.90;;;;;;4998189;28;20146;-73
2022/08/13 12:33:23;;;;;;;2.75;2.20;;;23.70;99.90;;;;;;4996345;28;20049;-72
2022/08/13 12:35:59;;;;;;;4.13;0.73;;;23.70;99.90;;;;;;4998457;28;20058;-70
2022/08/13 12:38:27;;;;;;;1.83;1.00;;;23.80;99.90;;;;;;4997093;28;20148;-73
2022/08/13 12:40:58;;;;;;;10.93;1.50;;;23.70;99.90;;;;;;4997751;28;20046;-70
2022/08/13 12:43:26;;;;;;;2.03;1.03;;;23.70;99.90;;;;;;4995828;28;20049;-71
2022/08/13 12:46:13;;;;;;;4.13;1.30;;;23.80;99.90;;;;;;4998647;28;20288;-71
2022/08/13 12:48:59;;;;;;;1.23;1.13;;;23.80;99.90;;;;;;4997601;28;20246;-72
2022/08/13 12:51:25;;;;;;;2.53;0.95;;;23.70;99.90;;;;;;4994811;28;20092;-72
2022/08/13 12:54:12;;;;;;;2.97;1.20;;;23.70;99.90;;;;;;4997041;28;20053;-69
2022/08/13 12:57:00;;;;;;;4.07;1.13;;;23.70;99.90;;;;;;4995996;28;20060;-74
2022/08/13 12:59:31;;;;;;;1.38;1.25;;;23.80;99.90;;;;;;4996518;28;20082;-69
2022/08/13 13:02:04;;;;;;;1.38;1.27;;;23.90;99.90;;;;;;4997161;28;20504;-70
2022/08/13 13:04:33;;;;;;;3.63;1.20;;;24.00;99.90;;;;;;4995862;28;20123;-73
2022/08/13 13:07:00;;;;;;;1.75;1.65;;;24.10;99.90;;;;;;4997967;28;20197;-75
2022/08/13 13:09:33;;;;;;;1.80;0.90;;;24.00;99.90;;;;;;4980723;28;20037;-71
2022/08/13 13:12:15;;;;;;;1.20;0.82;;;24.10;99.90;;;;;;5001278;28;20057;-68
2022/08/13 13:14:42;;;;;;;2.95;0.93;;;24.00;99.90;;;;;;4997011;28;20077;-71
2022/08/13 13:17:09;;;;;;;2.33;0.90;;;24.20;99.90;;;;;;4995273;28;20538;-70
2022/08/13 13:19:58;;;;;;;1.13;0.60;;;24.30;99.90;;;;;;4997579;28;20045;-67
2022/08/13 13:22:32;;;;;;;1.25;0.95;;;24.40;99.90;;;;;;4997360;28;20095;-67
2022/08/13 13:25:05;;;;;;;1.73;0.68;;;24.40;99.90;;;;;;4996844;28;20077;-69
2022/08/13 13:27:35;;;;;;;2.05;0.70;;;24.60;99.90;;;;;;4976343;28;20046;-72
2022/08/13 13:30:12;;;;;;;2.35;0.88;;;24.60;99.90;;;;;;4976347;28;20057;-75
2022/08/13 13:32:45;;;;;;;3.28;0.68;;;24.60;99.90;;;;;;4977603;28;20168;-70
2022/08/13 13:35:16;;;;;;;4.20;1.30;;;24.70;99.90;;;;;;4974700;28;20046;-67
2022/08/13 13:38:06;;;;;;;0.73;0.60;;;24.60;99.90;;;;;;4975416;28;20244;-73
2022/08/13 13:40:38;;;;;;;1.23;0.95;;;24.30;99.90;;;;;;4976768;28;20055;-72
2022/08/13 13:43:13;;;;;;;1.50;0.77;;;24.10;99.90;;;;;;4974314;28;20425;-73
2022/08/13 13:45:56;;;;;;;2.92;0.98;;;24.00;99.90;;;;;;4982664;28;20057;-67
2022/08/13 13:48:34;;;;;;;3.13;0.98;;;24.10;99.90;;;;;;5001461;28;20132;-73
2022/08/13 13:51:05;;;;;;;2.88;0.80;;;24.10;99.90;;;;;;4996251;28;20054;-68
2022/08/13 13:53:35;;;;;;;2.00;0.90;;;24.20;99.90;;;;;;4993919;28;21384;-67